sensor_id;sensor_type;location;lat;lon;timestamp;pressure;altitude;pressure_sealevel;temperature;humidity
59971;BME280;45825;45.434;9.116;2022-08-16T00:01:34;99584.78;;;24.27;56.96
59971;BME280;45825;45.434;9.116;2022-08-16T00:03:59;99589.19;;;24.28;57.09
59971;BME280;45825;45.434;9.116;2022-08-16T00:06:25;99587.47;;;24.27;57.08
59971;BME280;45825;45.434;9.116;2022-08-16T00:08:52;99579.25;;;24.28;57.04
59971;BME280;45825;45.434;9.116;2022-08-16T00:11:17;99575.91;;;24.26;57.04
59971;BME280;45825;45.434;9.116;2022-08-16T00:13:44;99584.22;;;24.32;57.02
59971;BME280;45825;45.434;9.116;2022-08-16T00:16:10;99587.94;;;24.31;57.02
59971;BME280;45825;45.434;9.116;2022-08-16T00:18:35;99595.34;;;24.07;57.61
59971;BME280;45825;45.434;9.116;2022-08-16T00:21:01;99590.06;;;23.98;57.77
59971;BME280;45825;45.434;9.116;2022-08-16T00:23:26;99594.53;;;23.91;57.98
59971;BME280;45825;45.434;9.116;2022-08-16T00:25:51;99590.91;;;23.99;57.81
59971;BME280;45825;45.434;9.116;2022-08-16T00:28:17;99591.00;;;24.06;57.70
59971;BME280;45825;45.434;9.116;2022-08-16T00:30:42;99589.41;;;24.11;57.64
59971;BME280;45825;45.434;9.116;2022-08-16T00:33:08;99584.56;;;24.22;57.44
59971;BME280;45825;45.434;9.116;2022-08-16T00:35:35;99593.38;;;24.16;57.47
59971;BME280;45825;45.434;9.116;2022-08-16T00:38:02;99601.34;;;24.09;57.78
59971;BME280;45825;45.434;9.116;2022-08-16T00:40:42;99590.03;;;24.13;57.85
59971;BME280;45825;45.434;9.116;2022-08-16T00:43:14;99596.16;;;24.22;57.87
59971;BME280;45825;45.434;9.116;2022-08-16T00:46:00;99590.00;;;24.28;57.45
59971;BME280;45825;45.434;9.116;2022-08-16T00:48:30;99583.91;;;24.20;57.81
59971;BME280;45825;45.434;9.116;2022-08-16T00:50:56;99594.03;;;24.18;57.66
59971;BME280;45825;45.434;9.116;2022-08-16T00:53:22;99594.16;;;23.94;58.31
59971;BME280;45825;45.434;9.116;2022-08-16T00:55:50;99598.34;;;23.82;59.13
59971;BME280;45825;45.434;9.116;2022-08-16T00:58:18;99603.84;;;23.58;59.99
59971;BME280;45825;45.434;9.116;2022-08-16T01:00:45;99605.16;;;23.63;60.15
59971;BME280;45825;45.434;9.116;2022-08-16T01:03:13;99602.81;;;23.60;60.05
59971;BME280;45825;45.434;9.116;2022-08-16T01:05:40;99601.16;;;23.58;60.24
59971;BME280;45825;45.434;9.116;2022-08-16T01:08:07;99595.78;;;23.58;60.70
59971;BME280;45825;45.434;9.116;2022-08-16T01:10:33;99600.50;;;23.56;60.62
59971;BME280;45825;45.434;9.116;2022-08-16T01:13:03;99589.47;;;23.66;60.43
59971;BME280;45825;45.434;9.116;2022-08-16T01:15:29;99591.69;;;23.78;59.94
59971;BME280;45825;45.434;9.116;2022-08-16T01:17:56;99591.59;;;23.71;59.67
59971;BME280;45825;45.434;9.116;2022-08-16T01:20:24;99604.22;;;23.70;59.83
59971;BME280;45825;45.434;9.116;2022-08-16T01:25:24;99604.13;;;23.64;60.13
59971;BME280;45825;45.434;9.116;2022-08-16T01:27:53;99614.66;;;23.65;60.38
59971;BME280;45825;45.434;9.116;2022-08-16T01:30:24;99619.00;;;23.66;60.37
59971;BME280;45825;45.434;9.116;2022-08-16T01:32:51;99621.22;;;23.78;60.22
59971;BME280;45825;45.434;9.116;2022-08-16T01:35:23;99626.50;;;23.86;59.76
59971;BME280;45825;45.434;9.116;2022-08-16T01:37:54;99634.63;;;23.93;59.56
59971;BME280;45825;45.434;9.116;2022-08-16T01:40:26;99640.63;;;23.95;59.58
59971;BME280;45825;45.434;9.116;2022-08-16T01:42:53;99625.66;;;23.85;60.58
59971;BME280;45825;45.434;9.116;2022-08-16T01:45:19;99636.84;;;23.89;60.55
59971;BME280;45825;45.434;9.116;2022-08-16T01:47:47;99641.56;;;23.87;60.77
59971;BME280;45825;45.434;9.116;2022-08-16T01:50:13;99645.28;;;23.86;60.84
59971;BME280;45825;45.434;9.116;2022-08-16T01:52:39;99644.34;;;23.79;61.10
59971;BME280;45825;45.434;9.116;2022-08-16T01:55:06;99646.88;;;23.80;61.18
59971;BME280;45825;45.434;9.116;2022-08-16T01:57:32;99649.72;;;23.79;61.52
59971;BME280;45825;45.434;9.116;2022-08-16T01:59:58;99640.13;;;23.84;61.55
59971;BME280;45825;45.434;9.116;2022-08-16T02:02:24;99647.78;;;23.88;61.35
59971;BME280;45825;45.434;9.116;2022-08-16T02:04:50;99656.50;;;23.90;61.34
59971;BME280;45825;45.434;9.116;2022-08-16T02:07:17;99647.59;;;23.89;61.29
59971;BME280;45825;45.434;9.116;2022-08-16T02:09:44;99654.06;;;23.95;61.24
59971;BME280;45825;45.434;9.116;2022-08-16T02:12:10;99650.75;;;23.93;60.98
59971;BME280;45825;45.434;9.116;2022-08-16T02:14:37;99654.53;;;23.83;61.23
59971;BME280;45825;45.434;9.116;2022-08-16T02:17:05;99647.50;;;23.82;61.05
59971;BME280;45825;45.434;9.116;2022-08-16T02:19:34;99653.56;;;23.69;61.42
59971;BME280;45825;45.434;9.116;2022-08-16T02:22:00;99639.03;;;23.64;61.22
59971;BME280;45825;45.434;9.116;2022-08-16T02:24:27;99640.69;;;23.65;60.95
59971;BME280;45825;45.434;9.116;2022-08-16T02:26:54;99635.31;;;23.65;60.69
59971;BME280;45825;45.434;9.116;2022-08-16T02:29:20;99635.31;;;23.65;60.23
59971;BME280;45825;45.434;9.116;2022-08-16T02:31:47;99636.53;;;23.62;60.09
59971;BME280;45825;45.434;9.116;2022-08-16T02:34:13;99638.00;;;23.65;60.35
59971;BME280;45825;45.434;9.116;2022-08-16T02:36:40;99640.47;;;23.66;60.26
59971;BME280;45825;45.434;9.116;2022-08-16T02:39:06;99627.63;;;23.62;60.35
59971;BME280;45825;45.434;9.116;2022-08-16T02:41:32;99639.38;;;23.61;60.28
59971;BME280;45825;45.434;9.116;2022-08-16T02:43:58;99638.47;;;23.68;60.36
59971;BME280;45825;45.434;9.116;2022-08-16T02:46:24;99642.34;;;23.66;59.92
59971;BME280;45825;45.434;9.116;2022-08-16T02:48:50;99640.22;;;23.61;60.08
59971;BME280;45825;45.434;9.116;2022-08-16T02:51:15;99634.84;;;23.61;60.05
59971;BME280;45825;45.434;9.116;2022-08-16T02:53:43;99641.16;;;23.68;59.74
59971;BME280;45825;45.434;9.116;2022-08-16T02:56:08;99646.06;;;23.80;59.38
59971;BME280;45825;45.434;9.116;2022-08-16T02:58:37;99642.69;;;23.78;59.48
59971;BME280;45825;45.434;9.116;2022-08-16T03:01:02;99639.94;;;23.71;59.65
59971;BME280;45825;45.434;9.116;2022-08-16T03:03:28;99635.59;;;23.55;60.34
59971;BME280;45825;45.434;9.116;2022-08-16T03:05:53;99645.13;;;23.57;60.28
59971;BME280;45825;45.434;9.116;2022-08-16T03:08:21;99641.88;;;23.47;60.82
59971;BME280;45825;45.434;9.116;2022-08-16T03:10:47;99638.72;;;23.43;60.84
59971;BME280;45825;45.434;9.116;2022-08-16T03:13:14;99648.38;;;23.53;60.77
59971;BME280;45825;45.434;9.116;2022-08-16T03:15:39;99642.66;;;23.41;61.99
59971;BME280;45825;45.434;9.116;2022-08-16T03:18:05;99632.00;;;23.33;61.82
59971;BME280;45825;45.434;9.116;2022-08-16T03:20:30;99636.44;;;23.40;61.87
59971;BME280;45825;45.434;9.116;2022-08-16T03:22:56;99635.69;;;23.47;61.60
59971;BME280;45825;45.434;9.116;2022-08-16T03:25:21;99641.97;;;23.54;60.99
59971;BME280;45825;45.434;9.116;2022-08-16T03:27:46;99644.66;;;23.54;60.69
59971;BME280;45825;45.434;9.116;2022-08-16T03:30:25;99645.97;;;23.43;60.98
59971;BME280;45825;45.434;9.116;2022-08-16T03:32:51;99647.25;;;23.47;60.85
59971;BME280;45825;45.434;9.116;2022-08-16T03:35:18;99644.66;;;23.54;60.79
59971;BME280;45825;45.434;9.116;2022-08-16T03:37:45;99650.50;;;23.57;60.73
59971;BME280;45825;45.434;9.116;2022-08-16T03:40:13;99656.25;;;23.54;61.04
59971;BME280;45825;45.434;9.116;2022-08-16T03:42:38;99662.25;;;23.56;61.17
59971;BME280;45825;45.434;9.116;2022-08-16T03:45:04;99647.72;;;23.51;61.58
59971;BME280;45825;45.434;9.116;2022-08-16T03:47:30;99650.78;;;23.48;61.57
59971;BME280;45825;45.434;9.116;2022-08-16T03:49:55;99653.19;;;23.42;61.85
59971;BME280;45825;45.434;9.116;2022-08-16T03:52:22;99657.44;;;23.37;61.96
59971;BME280;45825;45.434;9.116;2022-08-16T03:54:49;99649.00;;;23.40;62.01
59971;BME280;45825;45.434;9.116;2022-08-16T03:57:15;99647.53;;;23.37;62.24
59971;BME280;45825;45.434;9.116;2022-08-16T03:59:40;99646.22;;;23.33;62.51
59971;BME280;45825;45.434;9.116;2022-08-16T04:02:06;99653.09;;;23.36;62.69
59971;BME280;45825;45.434;9.116;2022-08-16T04:04:32;99659.66;;;23.33;62.82
59971;BME280;45825;45.434;9.116;2022-08-16T04:07:02;99656.63;;;23.36;62.70
59971;BME280;45825;45.434;9.116;2022-08-16T04:09:29;99661.59;;;23.39;62.80
59971;BME280;45825;45.434;9.116;2022-08-16T04:11:55;99660.97;;;23.37;62.69
59971;BME280;45825;45.434;9.116;2022-08-16T04:14:20;99664.28;;;23.39;62.37
59971;BME280;45825;45.434;9.116;2022-08-16T04:16:46;99669.09;;;23.44;62.13
59971;BME280;45825;45.434;9.116;2022-08-16T04:19:11;99666.44;;;23.44;62.03
59971;BME280;45825;45.434;9.116;2022-08-16T04:21:37;99671.16;;;23.42;62.09
59971;BME280;45825;45.434;9.116;2022-08-16T04:24:03;99675.13;;;23.46;62.07
59971;BME280;45825;45.434;9.116;2022-08-16T04:26:29;99678.66;;;23.47;61.96
59971;BME280;45825;45.434;9.116;2022-08-16T04:28:54;99676.94;;;23.46;62.33
59971;BME280;45825;45.434;9.116;2022-08-16T04:31:20;99676.31;;;23.43;62.45
59971;BME280;45825;45.434;9.116;2022-08-16T04:33:45;99684.19;;;23.45;62.64
59971;BME280;45825;45.434;9.116;2022-08-16T04:36:11;99684.75;;;23.40;62.86
59971;BME280;45825;45.434;9.116;2022-08-16T04:38:37;99689.63;;;23.37;63.12
59971;BME280;45825;45.434;9.116;2022-08-16T04:41:02;99693.06;;;23.30;63.42
59971;BME280;45825;45.434;9.116;2022-08-16T04:43:28;99693.34;;;23.12;64.42
59971;BME280;45825;45.434;9.116;2022-08-16T04:45:53;99702.88;;;23.15;64.23
59971;BME280;45825;45.434;9.116;2022-08-16T04:48:19;99710.06;;;22.99;64.85
59971;BME280;45825;45.434;9.116;2022-08-16T04:50:44;99718.28;;;22.98;65.17
59971;BME280;45825;45.434;9.116;2022-08-16T04:53:10;99712.94;;;22.98;65.16
59971;BME280;45825;45.434;9.116;2022-08-16T04:55:36;99710.19;;;23.06;64.69
59971;BME280;45825;45.434;9.116;2022-08-16T04:58:01;99713.63;;;23.15;64.28
59971;BME280;45825;45.434;9.116;2022-08-16T05:00:30;99717.91;;;23.24;64.03
59971;BME280;45825;45.434;9.116;2022-08-16T05:03:04;99713.38;;;23.25;64.42
59971;BME280;45825;45.434;9.116;2022-08-16T05:05:30;99724.69;;;23.35;63.47
59971;BME280;45825;45.434;9.116;2022-08-16T05:07:56;99719.81;;;23.39;63.64
59971;BME280;45825;45.434;9.116;2022-08-16T05:10:21;99714.44;;;23.39;63.52
59971;BME280;45825;45.434;9.116;2022-08-16T05:12:46;99717.59;;;23.42;63.25
59971;BME280;45825;45.434;9.116;2022-08-16T05:15:12;99719.47;;;23.42;63.38
59971;BME280;45825;45.434;9.116;2022-08-16T05:17:37;99726.28;;;23.44;63.11
59971;BME280;45825;45.434;9.116;2022-08-16T05:20:04;99735.28;;;23.52;63.04
59971;BME280;45825;45.434;9.116;2022-08-16T05:22:29;99741.50;;;23.52;62.65
59971;BME280;45825;45.434;9.116;2022-08-16T05:24:55;99744.63;;;23.41;63.34
59971;BME280;45825;45.434;9.116;2022-08-16T05:27:20;99746.38;;;23.34;63.86
59971;BME280;45825;45.434;9.116;2022-08-16T05:29:46;99745.53;;;23.33;64.11
59971;BME280;45825;45.434;9.116;2022-08-16T05:32:11;99744.63;;;23.41;63.64
59971;BME280;45825;45.434;9.116;2022-08-16T05:34:37;99745.59;;;23.25;64.65
59971;BME280;45825;45.434;9.116;2022-08-16T05:37:02;99757.13;;;23.25;64.13
59971;BME280;45825;45.434;9.116;2022-08-16T05:39:28;99759.97;;;23.24;65.10
59971;BME280;45825;45.434;9.116;2022-08-16T05:41:53;99762.34;;;23.03;65.87
59971;BME280;45825;45.434;9.116;2022-08-16T05:44:20;99766.03;;;23.02;66.03
59971;BME280;45825;45.434;9.116;2022-08-16T05:46:46;99774.19;;;22.86;66.86
59971;BME280;45825;45.434;9.116;2022-08-16T05:49:11;99768.06;;;23.00;66.44
59971;BME280;45825;45.434;9.116;2022-08-16T05:51:39;99767.00;;;23.10;66.38
59971;BME280;45825;45.434;9.116;2022-08-16T05:54:05;99769.31;;;23.13;66.28
59971;BME280;45825;45.434;9.116;2022-08-16T05:56:30;99770.88;;;23.07;66.57
59971;BME280;45825;45.434;9.116;2022-08-16T05:58:56;99766.84;;;23.26;65.96
59971;BME280;45825;45.434;9.116;2022-08-16T06:01:21;99767.63;;;23.35;65.64
59971;BME280;45825;45.434;9.116;2022-08-16T06:03:46;99766.28;;;23.39;65.82
59971;BME280;45825;45.434;9.116;2022-08-16T06:06:12;99776.38;;;23.37;65.75
59971;BME280;45825;45.434;9.116;2022-08-16T06:08:37;99769.50;;;23.35;65.92
59971;BME280;45825;45.434;9.116;2022-08-16T06:11:02;99767.78;;;23.57;65.42
59971;BME280;45825;45.434;9.116;2022-08-16T06:13:27;99769.19;;;23.68;64.81
59971;BME280;45825;45.434;9.116;2022-08-16T06:15:53;99767.72;;;23.80;64.37
59971;BME280;45825;45.434;9.116;2022-08-16T06:18:18;99762.28;;;23.89;63.91
59971;BME280;45825;45.434;9.116;2022-08-16T06:20:43;99759.50;;;23.97;63.91
59971;BME280;45825;45.434;9.116;2022-08-16T06:23:09;99758.13;;;24.16;63.26
59971;BME280;45825;45.434;9.116;2022-08-16T06:25:34;99753.13;;;24.28;63.03
59971;BME280;45825;45.434;9.116;2022-08-16T06:27:59;99758.50;;;24.28;63.08
59971;BME280;45825;45.434;9.116;2022-08-16T06:30:25;99768.31;;;24.21;63.14
59971;BME280;45825;45.434;9.116;2022-08-16T06:32:50;99764.69;;;24.28;62.82
59971;BME280;45825;45.434;9.116;2022-08-16T06:35:16;99774.78;;;24.41;62.78
59971;BME280;45825;45.434;9.116;2022-08-16T06:37:41;99777.53;;;24.48;62.56
59971;BME280;45825;45.434;9.116;2022-08-16T06:40:08;99777.47;;;24.41;62.42
59971;BME280;45825;45.434;9.116;2022-08-16T06:42:34;99778.56;;;24.47;62.23
59971;BME280;45825;45.434;9.116;2022-08-16T06:44:59;99777.44;;;24.57;62.19
59971;BME280;45825;45.434;9.116;2022-08-16T06:47:25;99779.34;;;24.63;61.86
59971;BME280;45825;45.434;9.116;2022-08-16T06:49:50;99777.19;;;24.73;61.76
59971;BME280;45825;45.434;9.116;2022-08-16T06:52:16;99779.91;;;24.58;62.32
59971;BME280;45825;45.434;9.116;2022-08-16T06:54:41;99780.84;;;24.65;62.02
59971;BME280;45825;45.434;9.116;2022-08-16T06:57:07;99788.97;;;24.35;62.96
59971;BME280;45825;45.434;9.116;2022-08-16T06:59:35;99786.63;;;24.47;62.80
59971;BME280;45825;45.434;9.116;2022-08-16T07:02:00;99780.97;;;24.27;63.68
59971;BME280;45825;45.434;9.116;2022-08-16T07:04:26;99791.75;;;24.27;63.82
59971;BME280;45825;45.434;9.116;2022-08-16T07:06:52;99785.81;;;24.32;63.59
59971;BME280;45825;45.434;9.116;2022-08-16T07:09:17;99785.44;;;24.35;63.32
59971;BME280;45825;45.434;9.116;2022-08-16T07:11:43;99794.16;;;24.37;63.23
59971;BME280;45825;45.434;9.116;2022-08-16T07:14:09;99793.38;;;24.43;63.45
59971;BME280;45825;45.434;9.116;2022-08-16T07:16:34;99791.63;;;24.50;63.22
59971;BME280;45825;45.434;9.116;2022-08-16T07:18:59;99788.56;;;24.38;63.53
59971;BME280;45825;45.434;9.116;2022-08-16T07:21:25;99794.41;;;24.42;63.56
59971;BME280;45825;45.434;9.116;2022-08-16T07:23:50;99793.50;;;24.35;63.62
59971;BME280;45825;45.434;9.116;2022-08-16T07:26:22;99796.84;;;24.37;63.77
59971;BME280;45825;45.434;9.116;2022-08-16T07:28:48;99796.38;;;24.33;63.89
59971;BME280;45825;45.434;9.116;2022-08-16T07:31:14;99797.38;;;24.47;63.84
59971;BME280;45825;45.434;9.116;2022-08-16T07:33:41;99801.19;;;24.53;63.46
59971;BME280;45825;45.434;9.116;2022-08-16T07:36:07;99804.13;;;24.58;63.33
59971;BME280;45825;45.434;9.116;2022-08-16T07:38:33;99803.00;;;24.67;62.67
59971;BME280;45825;45.434;9.116;2022-08-16T07:41:00;99802.53;;;24.79;62.59
59971;BME280;45825;45.434;9.116;2022-08-16T07:43:25;99805.56;;;24.76;62.88
59971;BME280;45825;45.434;9.116;2022-08-16T07:45:51;99803.63;;;24.85;62.30
59971;BME280;45825;45.434;9.116;2022-08-16T07:48:17;99801.34;;;24.51;63.49
59971;BME280;45825;45.434;9.116;2022-08-16T07:50:43;99807.09;;;24.63;63.52
59971;BME280;45825;45.434;9.116;2022-08-16T07:53:09;99813.00;;;24.74;62.71
59971;BME280;45825;45.434;9.116;2022-08-16T07:55:35;99814.59;;;24.83;62.43
59971;BME280;45825;45.434;9.116;2022-08-16T07:58:02;99817.53;;;24.88;61.50
59971;BME280;45825;45.434;9.116;2022-08-16T08:00:28;99808.72;;;24.94;61.64
59971;BME280;45825;45.434;9.116;2022-08-16T08:02:53;99807.28;;;24.99;61.77
59971;BME280;45825;45.434;9.116;2022-08-16T08:05:20;99805.84;;;24.81;62.10
59971;BME280;45825;45.434;9.116;2022-08-16T08:07:47;99808.44;;;24.74;62.25
59971;BME280;45825;45.434;9.116;2022-08-16T08:10:13;99807.91;;;24.79;62.18
59971;BME280;45825;45.434;9.116;2022-08-16T08:12:39;99802.97;;;24.82;62.10
59971;BME280;45825;45.434;9.116;2022-08-16T08:15:07;99803.50;;;24.93;61.46
59971;BME280;45825;45.434;9.116;2022-08-16T08:17:33;99797.44;;;25.06;60.38
59971;BME280;45825;45.434;9.116;2022-08-16T08:20:03;99804.66;;;25.05;60.85
59971;BME280;45825;45.434;9.116;2022-08-16T08:22:29;99795.50;;;25.21;60.16
59971;BME280;45825;45.434;9.116;2022-08-16T08:24:54;99808.06;;;25.36;59.60
59971;BME280;45825;45.434;9.116;2022-08-16T08:27:19;99802.34;;;25.46;58.74
59971;BME280;45825;45.434;9.116;2022-08-16T08:29:45;99811.34;;;25.53;58.70
59971;BME280;45825;45.434;9.116;2022-08-16T08:32:10;99811.41;;;25.60;58.37
59971;BME280;45825;45.434;9.116;2022-08-16T08:34:35;99808.13;;;25.64;58.36
59971;BME280;45825;45.434;9.116;2022-08-16T08:37:01;99812.31;;;25.74;58.23
59971;BME280;45825;45.434;9.116;2022-08-16T08:39:26;99811.50;;;25.73;57.44
59971;BME280;45825;45.434;9.116;2022-08-16T08:41:52;99815.13;;;25.59;57.68
59971;BME280;45825;45.434;9.116;2022-08-16T08:44:18;99813.75;;;25.70;57.71
59971;BME280;45825;45.434;9.116;2022-08-16T08:46:44;99818.00;;;25.86;56.97
59971;BME280;45825;45.434;9.116;2022-08-16T08:49:11;99810.22;;;25.98;56.81
59971;BME280;45825;45.434;9.116;2022-08-16T08:51:36;99818.38;;;26.11;56.40
59971;BME280;45825;45.434;9.116;2022-08-16T08:54:05;99809.56;;;26.24;56.54
59971;BME280;45825;45.434;9.116;2022-08-16T08:56:32;99812.28;;;26.24;56.31
59971;BME280;45825;45.434;9.116;2022-08-16T08:58:58;99818.41;;;26.18;56.34
59971;BME280;45825;45.434;9.116;2022-08-16T09:01:28;99815.81;;;26.31;55.58
59971;BME280;45825;45.434;9.116;2022-08-16T09:03:54;99822.09;;;26.39;55.32
59971;BME280;45825;45.434;9.116;2022-08-16T09:06:19;99820.47;;;26.51;55.10
59971;BME280;45825;45.434;9.116;2022-08-16T09:08:44;99815.50;;;26.55;54.15
59971;BME280;45825;45.434;9.116;2022-08-16T09:11:10;99819.06;;;26.62;53.32
59971;BME280;45825;45.434;9.116;2022-08-16T09:13:35;99812.88;;;26.75;53.39
59971;BME280;45825;45.434;9.116;2022-08-16T09:16:01;99820.66;;;26.91;53.59
59971;BME280;45825;45.434;9.116;2022-08-16T09:18:26;99813.00;;;27.09;53.22
59971;BME280;45825;45.434;9.116;2022-08-16T09:20:54;99809.69;;;27.20;52.75
59971;BME280;45825;45.434;9.116;2022-08-16T09:23:20;99819.25;;;27.29;52.24
59971;BME280;45825;45.434;9.116;2022-08-16T09:25:46;99815.31;;;27.32;53.16
59971;BME280;45825;45.434;9.116;2022-08-16T09:28:11;99823.41;;;27.45;52.55
59971;BME280;45825;45.434;9.116;2022-08-16T09:30:37;99822.38;;;27.40;50.92
59971;BME280;45825;45.434;9.116;2022-08-16T09:33:04;99821.97;;;27.56;51.09
59971;BME280;45825;45.434;9.116;2022-08-16T09:35:31;99818.88;;;27.66;50.71
59971;BME280;45825;45.434;9.116;2022-08-16T09:37:56;99821.38;;;27.54;51.96
59971;BME280;45825;45.434;9.116;2022-08-16T09:40:23;99822.19;;;27.61;51.11
59971;BME280;45825;45.434;9.116;2022-08-16T09:42:49;99820.72;;;27.79;51.14
59971;BME280;45825;45.434;9.116;2022-08-16T09:45:17;99805.31;;;27.93;50.90
59971;BME280;45825;45.434;9.116;2022-08-16T09:47:44;99804.28;;;27.94;50.03
59971;BME280;45825;45.434;9.116;2022-08-16T09:50:10;99810.16;;;27.64;49.75
59971;BME280;45825;45.434;9.116;2022-08-16T09:52:37;99797.06;;;27.74;47.53
59971;BME280;45825;45.434;9.116;2022-08-16T09:55:07;99802.22;;;27.83;48.10
59971;BME280;45825;45.434;9.116;2022-08-16T09:57:34;99808.09;;;27.59;49.51
59971;BME280;45825;45.434;9.116;2022-08-16T10:00:00;99793.47;;;27.87;49.69
59971;BME280;45825;45.434;9.116;2022-08-16T10:02:26;99793.94;;;27.78;48.81
59971;BME280;45825;45.434;9.116;2022-08-16T10:04:52;99793.88;;;28.18;48.72
59971;BME280;45825;45.434;9.116;2022-08-16T10:07:17;99788.09;;;28.53;47.83
59971;BME280;45825;45.434;9.116;2022-08-16T10:09:45;99785.88;;;28.89;47.05
59971;BME280;45825;45.434;9.116;2022-08-16T10:12:11;99778.75;;;29.20;46.62
59971;BME280;45825;45.434;9.116;2022-08-16T10:15:06;99770.00;;;29.50;45.43
59971;BME280;45825;45.434;9.116;2022-08-16T10:17:33;99778.63;;;29.66;44.48
59971;BME280;45825;45.434;9.116;2022-08-16T10:19:59;99775.50;;;30.06;43.53
59971;BME280;45825;45.434;9.116;2022-08-16T10:22:24;99774.53;;;30.50;42.40
59971;BME280;45825;45.434;9.116;2022-08-16T10:24:50;99781.38;;;31.02;41.82
59971;BME280;45825;45.434;9.116;2022-08-16T10:27:15;99774.66;;;31.04;41.35
59971;BME280;45825;45.434;9.116;2022-08-16T10:29:41;99777.53;;;31.69;41.09
59971;BME280;45825;45.434;9.116;2022-08-16T10:32:07;99774.38;;;31.84;40.39
59971;BME280;45825;45.434;9.116;2022-08-16T10:34:32;99773.44;;;32.43;39.97
59971;BME280;45825;45.434;9.116;2022-08-16T10:36:58;99763.56;;;32.54;39.21
59971;BME280;45825;45.434;9.116;2022-08-16T10:39:24;99768.28;;;32.18;40.05
59971;BME280;45825;45.434;9.116;2022-08-16T10:41:49;99772.63;;;33.18;39.01
59971;BME280;45825;45.434;9.116;2022-08-16T10:44:14;99774.13;;;33.99;37.58
59971;BME280;45825;45.434;9.116;2022-08-16T10:46:41;99767.53;;;34.45;36.04
59971;BME280;45825;45.434;9.116;2022-08-16T10:49:08;99766.50;;;34.02;34.82
59971;BME280;45825;45.434;9.116;2022-08-16T10:51:34;99777.94;;;33.64;36.03
59971;BME280;45825;45.434;9.116;2022-08-16T10:54:03;99775.41;;;33.97;35.73
59971;BME280;45825;45.434;9.116;2022-08-16T10:56:28;99767.41;;;34.85;35.04
59971;BME280;45825;45.434;9.116;2022-08-16T10:58:55;99777.41;;;34.74;33.57
59971;BME280;45825;45.434;9.116;2022-08-16T11:01:22;99778.66;;;34.16;35.32
59971;BME280;45825;45.434;9.116;2022-08-16T11:03:51;99782.50;;;33.41;35.89
59971;BME280;45825;45.434;9.116;2022-08-16T11:06:17;99777.97;;;34.76;34.86
59971;BME280;45825;45.434;9.116;2022-08-16T11:08:43;99784.34;;;35.14;33.51
59971;BME280;45825;45.434;9.116;2022-08-16T11:11:08;99780.34;;;35.27;33.66
59971;BME280;45825;45.434;9.116;2022-08-16T11:13:34;99781.94;;;34.90;32.98
59971;BME280;45825;45.434;9.116;2022-08-16T11:15:59;99791.06;;;35.72;32.88
59971;BME280;45825;45.434;9.116;2022-08-16T11:18:26;99780.84;;;36.05;32.36
59971;BME280;45825;45.434;9.116;2022-08-16T11:20:53;99791.03;;;36.10;31.21
59971;BME280;45825;45.434;9.116;2022-08-16T11:23:18;99781.75;;;36.21;30.35
59971;BME280;45825;45.434;9.116;2022-08-16T11:25:44;99785.84;;;36.18;31.23
59971;BME280;45825;45.434;9.116;2022-08-16T11:28:09;99796.38;;;35.13;31.73
59971;BME280;45825;45.434;9.116;2022-08-16T11:30:35;99785.16;;;34.10;33.40
59971;BME280;45825;45.434;9.116;2022-08-16T11:33:00;99797.84;;;34.71;32.89
59971;BME280;45825;45.434;9.116;2022-08-16T11:35:28;99793.38;;;34.87;32.34
59971;BME280;45825;45.434;9.116;2022-08-16T11:37:59;99788.84;;;35.63;31.63
59971;BME280;45825;45.434;9.116;2022-08-16T11:40:28;99787.53;;;36.30;30.65
59971;BME280;45825;45.434;9.116;2022-08-16T11:42:55;99783.28;;;36.81;30.81
59971;BME280;45825;45.434;9.116;2022-08-16T11:45:21;99781.13;;;37.14;30.13
59971;BME280;45825;45.434;9.116;2022-08-16T11:47:47;99779.47;;;37.28;29.94
59971;BME280;45825;45.434;9.116;2022-08-16T11:50:15;99777.25;;;37.62;29.49
59971;BME280;45825;45.434;9.116;2022-08-16T11:52:40;99783.50;;;36.58;30.57
59971;BME280;45825;45.434;9.116;2022-08-16T11:55:08;99777.28;;;37.36;29.46
59971;BME280;45825;45.434;9.116;2022-08-16T11:57:34;99775.84;;;37.74;29.35
59971;BME280;45825;45.434;9.116;2022-08-16T12:00:00;99780.81;;;36.00;30.83
59971;BME280;45825;45.434;9.116;2022-08-16T12:02:26;99781.25;;;35.05;32.85
59971;BME280;45825;45.434;9.116;2022-08-16T12:04:51;99771.88;;;34.96;33.93
59971;BME280;45825;45.434;9.116;2022-08-16T12:07:17;99772.59;;;36.00;31.92
59971;BME280;45825;45.434;9.116;2022-08-16T12:09:43;99768.47;;;35.97;32.05
59971;BME280;45825;45.434;9.116;2022-08-16T12:12:08;99768.88;;;36.21;31.84
59971;BME280;45825;45.434;9.116;2022-08-16T12:14:34;99767.81;;;35.69;32.14
59971;BME280;45825;45.434;9.116;2022-08-16T12:17:00;99760.53;;;36.70;31.21
59971;BME280;45825;45.434;9.116;2022-08-16T12:19:27;99756.69;;;36.81;30.92
59971;BME280;45825;45.434;9.116;2022-08-16T12:21:53;99749.25;;;37.44;30.08
59971;BME280;45825;45.434;9.116;2022-08-16T12:24:18;99751.38;;;37.83;30.11
59971;BME280;45825;45.434;9.116;2022-08-16T12:26:44;99751.13;;;37.80;29.63
59971;BME280;45825;45.434;9.116;2022-08-16T12:29:09;99748.47;;;37.33;29.37
59971;BME280;45825;45.434;9.116;2022-08-16T12:31:35;99751.97;;;37.65;28.88
59971;BME280;45825;45.434;9.116;2022-08-16T12:34:01;99750.84;;;37.76;28.63
59971;BME280;45825;45.434;9.116;2022-08-16T12:36:26;99743.06;;;38.09;28.70
59971;BME280;45825;45.434;9.116;2022-08-16T12:38:52;99745.44;;;37.55;28.81
59971;BME280;45825;45.434;9.116;2022-08-16T12:41:18;99738.72;;;36.11;30.91
59971;BME280;45825;45.434;9.116;2022-08-16T12:43:43;99736.66;;;36.49;30.64
59971;BME280;45825;45.434;9.116;2022-08-16T12:46:09;99743.31;;;37.06;30.08
59971;BME280;45825;45.434;9.116;2022-08-16T12:48:36;99741.06;;;36.66;30.23
59971;BME280;45825;45.434;9.116;2022-08-16T12:51:35;99748.06;;;36.15;30.29
59971;BME280;45825;45.434;9.116;2022-08-16T12:54:04;99734.78;;;36.71;30.00
59971;BME280;45825;45.434;9.116;2022-08-16T12:56:33;99731.41;;;36.32;29.81
59971;BME280;45825;45.434;9.116;2022-08-16T12:59:04;99737.13;;;36.20;29.85